Page, ND (58064)

1:30 AM CDT on July 27, 2016 (GMT -0500)
Home of the Absaraka Crows | | Change Station

Elev 1066 ft 46.98 °N, 97.39 °W | Updated 5 seconds ago

Light Rain
Light Rain
66.7 °F
Feels Like 66.7 °F
N
4.5
Wind Variable Wind from West
Gusts 5.4 mph

Today
High -- | Low -- °F
--% Chance of Precip.
Yesterday
High -- | Low -- °F
Precip. -- in
Pressure 30.03 in
Visibility 4.0 miles
Clouds Scattered Clouds 4200 ft
Mostly Cloudy 4800 ft
Overcast 6000 ft
Dew Point 66 °F
Humidity 99%
Rainfall 0.00 in
Snow Depth Not available.
6:03 AM 9:09 PM
Waning Gibbous, 46% visible
METAR KBAC 270615Z AUTO 03005KT 4SM -RA SCT042 BKN048 OVC060 19/19 A3003 RMK AO2 LTG DSNT E AND S P0002
Pressure 30.03 in
Visibility 4.0 miles
Clouds Scattered Clouds 4200 ft
Mostly Cloudy 4800 ft
Overcast 6000 ft
Dew Point 66 °F
Humidity 99%
Rainfall 0.00 in
Snow Depth Not available.
6:03 AM 9:09 PM
Waning Gibbous, 46% visible
METAR KBAC 270615Z AUTO 03005KT 4SM -RA SCT042 BKN048 OVC060 19/19 A3003 RMK AO2 LTG DSNT E AND S P0002

10-Day Weather Forecast

Almanac

Astronomy

Jul. 27, 2016 Rise Set
Actual Time
Civil Twilight
Nautical Twilight
Astronomical Twilight
Moon
Length of Visible Light
Length of Day
Tomorrow will be .
, % of the Moon is Illuminated

Today's Extremes

State Highs State Lows

Community

WunderPhotos

Upload Photos

1,927,818 photos uploaded!

WunderBlog® & News

Nearby

Air Quality

  Air Quality AQ Index Pollutant
Not available.

Snow Depth

Station Depth Elevation

Earthquake Activity

City Distance Mag. Time & Date
Minimum magnitude displayed is 2.5.

Coastal Water Temperatures

Place Temperature

Stations

Nearby Weather Stations

Station Location Temp. Windchill Dew Point Humidity Wind Precip. Elev Updated Type
                   

Watches & Warnings

There are currently no watches in effect.